Игры Blizzard:

Материалы:

Полезные ресурсы:

Warcraft Турниры:

Starcraft Турниры:

Общение:

Сайт:


Интернет-магазин лицензионных игр компании Blizzard на Украине





  Replays

Дата    Раса Игроки Карта Ver. Размер Скачано
2006-03-06     T v T [ReD]NaDa vs Sea.Sy Luna 1.13 137 Кб 1036
2006-03-06     WC3L #9: mTw vs u5 various 1.20 1591 Кб 1070
2006-03-06     WC3L #9: WE vs SK various 1.20 2058 Кб 1194
2006-03-06     WC3L #9: LanFan vs fnatic various 1.20 1660 Кб 1066
2006-03-06     WC3L #9: VerGe vs Play.IT various 1.20 1299 Кб 1030
2006-03-06     WC3L #9: 4Kings vs Mouz various 1.20 1678 Кб 1085
2006-03-03     all WC3L #9: THM vs NiP-Gaming various 1.20 1333 Кб 1231
2006-02-27     WC3L #9: LanFan vs VerGe various 1.20 771 Кб 1227
2006-02-27     WC3L #9: Mouz vs NiP various 1.20 2083 Кб 1114
2006-02-27     WC3L #9: mYm vs SK various 1.20 1577 Кб 1152
2006-02-27     WC3L #9: u5 vs fnatic various 1.20 1843 Кб 1111
2006-02-27     WC3L #9: mTw vs WE various 1.20 2013 Кб 1084
2006-02-27     WC3L #9: 4K vs Play.IT various 1.20 1217 Кб 1222
2006-02-27     inCup #5 Winter Replay Pack various 1.20 871 Кб 1084
2006-02-26     Team vs Team CW: uPro.Xeon + uPro.NawT vs nGt.Terran + nGt.Death various 1.20 393 Кб 1123
2006-02-26     Und -vs- Orc CW: uPro.Xeon vs nGt.Death variuos 1.20 252 Кб 1152
2006-02-26     NE vs Orc CW: uPro.tCuki vs nGt.H.as various 1.20 119 Кб 1164
2006-02-26     Orc vs Hum CW: uPro.W[a]RRioR vs nGt.Diesel various 1.20 128 Кб 1137
2006-02-26     T v P SLayerS_`BoxeR` vs whdqordlek Luna 1.13 110 Кб 1083
2006-02-24     Hum vs NE KoTH 21: 4K^ToD vs fnatic.Creo various 1.20 315 Кб 1213
2006-02-22     Moon & Lucifer vs Grubby & ToD variuos 1.20 406 Кб 1336
2006-02-21     WC3L #9: 4K vs WE variuos 1.20 1277 Кб 1534
2006-02-20     inCup #4 Winter Replay Pack variuos 1.20 2009 Кб 1177
2006-02-20     all WC3L #9: THM vs verGe various 1.20 1384 Кб 1169
2006-02-20     all WC3L #9: mTw vs Play.It various 1.20 1838 Кб 1125
2006-02-20     all WC3L #9: LanFan vs SK Gaming various 1.20 1883 Кб 1130
2006-02-18     T v P [Red]Nada vs Sword[fOu] Luna 1.13 124 Кб 1038
2006-02-18     2x2 KTF vs Rome (cool micro) The Hunters 1.13 113 Кб 1160
2006-02-18     P v Z mYm.Draco vs eSa.ScHnibL0r (2 Games) variuos 1.13 171 Кб 1064
2006-02-18     T v Z [ReD]Nada vs CoOl[FoU] (6 Games) variuos 1.13 560 Кб 1142
2006-02-18     T v P [ReD]Nada vs ---.---; (3 Games) variuos 1.13 333 Кб 1089
2006-02-17     all WC3L #9: United5 vs NiP-Gaming various 1.20 2290 Кб 1109
2006-02-17     all WC3L #9: mouz.BenQ.GeiL vs fnatic various 1.20 2044 Кб 1086
2006-02-16     Swedish City War variuos 1.20 1454 Кб 1087
2006-02-15     WC3L 9: 4K vs fnatic variuos 1.20 1174 Кб 1184
2006-02-15     T v P TheMarine[Name] vs 3D.White-Ra (CoOl Game) Forte 1.13 186 Кб 1179
2006-02-15     T v Z aPple[S.M] vs [ReD]NaDa Luna 1.13 105 Кб 1010
2006-02-14     all WC3L #9: LanFan vs WE.IGE various 1.20 1436 Кб 1137
2006-02-14     all WC3L #9: United 5 vs SK Gaming various 1.20 1772 Кб 1151
2006-02-14     all WC3L #9: mTw vs NiP-Gaming various 1.20 1788 Кб 1106
2006-02-14     all WC3L #9: THM vs Play.It various 1.20 1456 Кб 1141
2006-02-14     all WC3L #9: mouz vs verGe various 1.20 1791 Кб 1086
2006-02-13     inCup #3 Winter Replay Pack variuos 1.20 1931 Кб 1156
2006-02-10     P v P LinYu)Pj vs =Y.J=Stronger Nightlight 1.13 115 Кб 1041
2006-02-10     T v Z [TNL]mYm.Advokate vs BBiGG.Squall Luna 1.13 99 Кб 1036
2006-02-10     T v P [PGT]iloveoov vs Polaris[Name] R_Point 1.13 128 Кб 1071
2006-02-10     T v T [ReD]NaDa vs G.3)bOy Luna 1.13 146 Кб 1048
2006-02-10     NE vs Orc WE.IGE.Check vs 4K^Grubby #2 GnollWood 1.20 66 Кб 1263
2006-02-10     NE vs Orc WE.IGE.Check vs 4K^Grubby #1 TurtleRock 1.20 123 Кб 1246
2006-02-10     NE vs Und es4x.Titan vs fnatic.SunShinE LostTemple 1.20 166 Кб 1126

| 1 | 2 | 3 | 4 | 5 | 6 | 7 | 8 | 9 | 10 | 11 | 12 | 13 | 14 | 15 | 16 | 17 | 18 | 19 | 20 | 21 | 22 | 23 | 24 | 25 | 26 | 27 | 28 | 29 | 30 | 31 | 32 | 33 | 34 | 35 | 36 | 37 | 38 | 39 | 40 | 41 | 42 |
Copyright  ©  2003-2013 Blizzard.Com.UA. Все права защищены.
Авторские права принадлежат создателям сайта (кроме авторства, указанного отдельно), частичное или полное копирование материалов сайта
возможно только с нашего письменного разрешения. Ссылка на первоисточник обязательна.



Украинская Баннерная Сеть
Rambler's Top100 Яндекс цитирования